Time;durP1;ratioP1;P1;durP2;ratioP2;P2;SDS_P1;SDS_P2;PMS_P1;PMS_P2;Temp;Humidity;BMP_temperature;BMP_pressure;BME280_temperature;BME280_humidity;BME280_pressure;Samples;Min_cycle;Max_cycle;Signal;HPM_P1;HPM_P2
2022/10/29 00:01:17;;;;;;;12.98;6.00;;;11.40;99.90;;;;;;4984523;28;20061;-79
2022/10/29 00:03:43;;;;;;;19.33;7.53;;;11.40;99.90;;;;;;4979501;28;20038;-78
2022/10/29 00:06:10;;;;;;;14.60;7.15;;;11.30;99.90;;;;;;4980363;28;20041;-78
2022/10/29 00:08:38;;;;;;;12.80;5.75;;;11.40;99.90;;;;;;4989240;28;20141;-79
2022/10/29 00:11:13;;;;;;;10.82;4.95;;;11.40;99.90;;;;;;4986097;28;20084;-78
2022/10/29 00:13:39;;;;;;;15.40;6.63;;;11.40;99.90;;;;;;4991643;28;20468;-79
2022/10/29 00:16:11;;;;;;;15.05;6.50;;;11.30;99.90;;;;;;5003604;28;20030;-78
2022/10/29 00:18:39;;;;;;;15.10;6.93;;;11.30;99.90;;;;;;4984900;28;20100;-79
2022/10/29 00:21:09;;;;;;;14.05;6.43;;;11.40;99.90;;;;;;4990431;28;20042;-78
2022/10/29 00:23:35;;;;;;;12.45;6.38;;;11.30;99.90;;;;;;5022701;28;20037;-79
2022/10/29 00:26:02;;;;;;;12.30;6.20;;;11.30;99.90;;;;;;5014456;28;20038;-79
2022/10/29 00:28:30;;;;;;;16.80;7.00;;;11.30;99.90;;;;;;4993091;28;20131;-79
2022/10/29 00:30:56;;;;;;;16.02;6.75;;;11.30;99.90;;;;;;4988154;28;20042;-79
2022/10/29 00:33:24;;;;;;;11.27;6.38;;;11.30;99.90;;;;;;4980532;28;20116;-79
2022/10/29 00:35:58;;;;;;;18.88;6.97;;;11.30;99.90;;;;;;5018527;28;20514;-78
2022/10/29 00:38:27;;;;;;;14.82;6.70;;;11.20;99.90;;;;;;5002228;28;20111;-78
2022/10/29 00:40:53;;;;;;;12.70;6.20;;;11.30;99.90;;;;;;5016198;28;20072;-78
2022/10/29 00:43:21;;;;;;;22.40;7.57;;;11.20;99.90;;;;;;5007706;28;20635;-78
2022/10/29 00:45:58;;;;;;;15.88;7.30;;;11.10;99.90;;;;;;4993111;28;20526;-78
2022/10/29 00:48:34;;;;;;;14.20;6.90;;;11.20;99.90;;;;;;4965948;28;20101;-78
2022/10/29 00:51:04;;;;;;;21.88;8.20;;;11.10;99.90;;;;;;4987392;28;20118;-78
2022/10/29 00:53:33;;;;;;;17.88;6.70;;;11.10;99.90;;;;;;4996684;28;20037;-78
2022/10/29 00:56:00;;;;;;;18.98;7.20;;;11.10;99.90;;;;;;5008309;28;20045;-78
2022/10/29 00:58:31;;;;;;;18.38;6.93;;;11.10;99.90;;;;;;5014121;28;20165;-78
2022/10/29 01:01:00;;;;;;;15.68;6.05;;;11.00;99.90;;;;;;4976848;28;20035;-78
2022/10/29 01:03:26;;;;;;;13.18;5.53;;;11.10;99.90;;;;;;5004467;28;20049;-78
2022/10/29 01:05:52;;;;;;;9.45;5.15;;;11.00;99.90;;;;;;5020132;28;20049;-78
2022/10/29 01:08:19;;;;;;;13.70;5.00;;;10.90;99.90;;;;;;5016428;28;20475;-78
2022/10/29 01:11:15;;;;;;;20.08;5.82;;;10.90;99.90;;;;;;4986154;28;20103;-78
2022/10/29 01:13:58;;;;;;;14.05;5.60;;;10.90;99.90;;;;;;5004043;28;20072;-78
2022/10/29 01:16:27;;;;;;;;;;;10.80;99.90;;;;;;5007207;28;20097;-78
2022/10/29 01:19:29;;;;;;;18.75;7.45;;;10.80;99.90;;;;;;5014617;28;19934;-78
2022/10/29 01:22:07;;;;;;;23.40;7.60;;;10.90;99.90;;;;;;5006281;28;20049;-78
2022/10/29 01:24:49;;;;;;;22.92;8.68;;;10.90;99.90;;;;;;4997570;28;20038;-78
2022/10/29 01:27:52;;;;;;;17.40;7.60;;;10.90;99.90;;;;;;4998615;28;20060;-78
2022/10/29 01:30:46;;;;;;;13.80;7.50;;;10.90;99.90;;;;;;5021655;28;20377;-79
2022/10/29 01:33:16;;;;;;;;;;;10.90;99.90;;;;;;4994038;28;20045;-79
2022/10/29 01:35:47;;;;;;;17.00;7.38;;;10.90;99.90;;;;;;4982778;28;20438;-78
2022/10/29 01:38:29;;;;;;;14.57;7.55;;;10.90;99.90;;;;;;4992076;28;20038;-78
2022/10/29 01:41:07;;;;;;;21.25;8.43;;;10.90;99.90;;;;;;4999059;28;20038;-78
2022/10/29 01:43:55;;;;;;;23.27;9.25;;;10.90;99.90;;;;;;5000968;28;20047;-78
2022/10/29 01:46:39;;;;;;;16.38;7.35;;;11.00;99.90;;;;;;5015179;28;20073;-78
2022/10/29 01:49:12;;;;;;;25.10;9.70;;;11.00;99.90;;;;;;4988704;28;20046;-78
2022/10/29 01:51:39;;;;;;;20.05;9.10;;;11.00;99.90;;;;;;4992618;28;20125;-78
2022/10/29 01:54:08;;;;;;;15.63;8.38;;;11.00;99.90;;;;;;5014894;28;20044;-78
2022/10/29 01:56:34;;;;;;;18.98;7.07;;;11.00;99.90;;;;;;5000977;28;20044;-78
2022/10/29 01:59:04;;;;;;;15.93;8.20;;;10.90;99.90;;;;;;5000803;28;20069;-78
2022/10/29 02:01:58;;;;;;;11.63;6.60;;;10.90;99.90;;;;;;5010360;28;20447;-78
2022/10/29 02:05:00;;;;;;;13.18;7.07;;;10.90;99.90;;;;;;4986979;28;20041;-78
2022/10/29 02:07:37;;;;;;;24.92;6.60;;;10.80;99.90;;;;;;4969609;28;20078;-78
2022/10/29 02:10:30;;;;;;;14.68;6.28;;;10.70;99.90;;;;;;4996788;28;20050;-78
2022/10/29 02:12:56;;;;;;;27.10;8.47;;;10.70;99.90;;;;;;4985005;28;20481;-78
2022/10/29 02:15:49;;;;;;;25.90;9.93;;;10.60;99.90;;;;;;4972978;28;20077;-78
2022/10/29 02:18:15;;;;;;;15.20;8.82;;;10.60;99.90;;;;;;4988509;28;20038;-78
2022/10/29 02:20:43;;;;;;;25.05;9.40;;;10.60;99.90;;;;;;4991947;28;20488;-78
2022/10/29 02:23:09;;;;;;;30.60;9.60;;;10.60;99.90;;;;;;5008463;28;20056;-78
2022/10/29 02:25:35;;;;;;;27.70;10.23;;;10.60;99.90;;;;;;5016113;28;20076;-78
2022/10/29 02:28:01;;;;;;;33.08;10.43;;;10.70;99.90;;;;;;5013982;28;20108;-78
2022/10/29 02:30:26;;;;;;;13.50;9.15;;;10.60;99.90;;;;;;4975650;28;20061;-78
2022/10/29 02:32:52;;;;;;;20.77;9.27;;;10.70;99.90;;;;;;4980420;28;20060;-78
2022/10/29 02:35:18;;;;;;;56.40;11.10;;;10.60;99.90;;;;;;4980513;28;20046;-78
2022/10/29 02:37:46;;;;;;;20.92;8.07;;;10.70;99.90;;;;;;4985311;28;20043;-78
2022/10/29 02:40:12;;;;;;;13.70;7.68;;;10.70;99.90;;;;;;4985251;28;20030;-78
2022/10/29 02:42:38;;;;;;;36.90;11.43;;;10.70;99.90;;;;;;4977945;28;20052;-78
2022/10/29 02:45:04;;;;;;;12.25;8.23;;;10.80;99.90;;;;;;4987635;28;20065;-78
2022/10/29 02:47:30;;;;;;;20.15;9.13;;;10.70;99.90;;;;;;4991192;28;20091;-78
2022/10/29 02:49:55;;;;;;;28.63;8.50;;;10.70;99.90;;;;;;4996030;28;20061;-79
2022/10/29 02:52:21;;;;;;;45.45;11.15;;;10.70;99.90;;;;;;4988147;28;20440;-78
2022/10/29 02:54:47;;;;;;;47.70;9.88;;;10.70;99.90;;;;;;4979020;28;20612;-78
2022/10/29 02:57:13;;;;;;;20.17;9.02;;;10.70;99.90;;;;;;4979836;28;20088;-78
2022/10/29 02:59:39;;;;;;;13.05;7.82;;;10.70;99.90;;;;;;4995526;28;20073;-78
2022/10/29 03:02:05;;;;;;;21.80;8.43;;;10.70;99.90;;;;;;4987780;28;20041;-78
2022/10/29 03:04:30;;;;;;;31.52;11.25;;;10.80;99.90;;;;;;4991169;28;20049;-78
2022/10/29 03:06:56;;;;;;;28.48;9.55;;;10.70;99.90;;;;;;4999478;28;20064;-78
2022/10/29 03:09:24;;;;;;;14.18;7.70;;;10.70;99.90;;;;;;4999586;28;20409;-78
2022/10/29 03:11:50;;;;;;;18.92;8.25;;;10.60;99.90;;;;;;4985778;28;20048;-78
2022/10/29 03:14:16;;;;;;;12.65;8.57;;;10.60;99.90;;;;;;4981996;28;20037;-78
2022/10/29 03:16:42;;;;;;;45.92;11.25;;;10.60;99.90;;;;;;5003642;28;20034;-78
2022/10/29 03:19:08;;;;;;;37.92;12.55;;;10.60;99.90;;;;;;4992084;28;20038;-78
2022/10/29 03:21:33;;;;;;;33.80;11.85;;;10.70;99.90;;;;;;4981748;28;20464;-78
2022/10/29 03:23:59;;;;;;;22.25;9.45;;;10.60;99.90;;;;;;4987451;28;20045;-78
2022/10/29 03:26:25;;;;;;;12.20;9.23;;;10.60;99.90;;;;;;4999883;28;20041;-78
2022/10/29 03:28:51;;;;;;;12.00;7.68;;;10.60;99.90;;;;;;4996108;28;20128;-78
2022/10/29 03:31:16;;;;;;;21.30;9.27;;;10.60;99.90;;;;;;5002121;28;20057;-78
2022/10/29 03:33:42;;;;;;;19.02;7.93;;;10.60;99.90;;;;;;4983595;28;20050;-78
2022/10/29 03:36:08;;;;;;;23.15;9.70;;;10.60;99.90;;;;;;4979215;28;20045;-78
2022/10/29 03:38:34;;;;;;;38.70;11.65;;;10.60;99.90;;;;;;4983192;28;20046;-78
2022/10/29 03:41:00;;;;;;;13.30;8.38;;;10.50;99.90;;;;;;4990689;28;20049;-78
2022/10/29 03:43:26;;;;;;;13.50;9.00;;;10.60;99.90;;;;;;4989839;28;20462;-78
2022/10/29 03:45:53;;;;;;;18.38;9.48;;;10.60;99.90;;;;;;5006850;28;20350;-78
2022/10/29 03:48:20;;;;;;;15.30;9.07;;;10.50;99.90;;;;;;4975926;28;20139;-78
2022/10/29 03:51:06;;;;;;;28.83;10.63;;;10.50;99.90;;;;;;4971854;28;20089;-78
2022/10/29 03:53:34;;;;;;;14.15;8.95;;;10.50;99.90;;;;;;4977857;28;20042;-77
2022/10/29 03:56:00;;;;;;;35.08;9.93;;;10.50;99.90;;;;;;4989120;28;20034;-78
2022/10/29 03:58:26;;;;;;;39.83;13.70;;;10.50;99.90;;;;;;4997443;28;20072;-78
2022/10/29 04:00:58;;;;;;;8.60;7.80;;;10.50;99.90;;;;;;4992713;28;20392;-78
2022/10/29 04:03:24;;;;;;;14.57;10.07;;;10.50;99.90;;;;;;5004090;28;20416;-78
2022/10/29 04:05:50;;;;;;;11.38;8.30;;;10.50;99.90;;;;;;4988727;28;20137;-78
2022/10/29 04:08:19;;;;;;;12.65;8.60;;;10.40;99.90;;;;;;5006436;28;20439;-78
2022/10/29 04:10:47;;;;;;;10.32;7.88;;;10.50;99.90;;;;;;4989012;28;20054;-78
2022/10/29 04:13:14;;;;;;;29.80;10.82;;;10.50;99.90;;;;;;5007346;28;20038;-78
2022/10/29 04:15:40;;;;;;;8.38;7.22;;;10.50;99.90;;;;;;4984262;28;20038;-78
2022/10/29 04:18:07;;;;;;;15.70;8.20;;;10.40;99.90;;;;;;4976777;28;20085;-78
2022/10/29 04:20:33;;;;;;;11.43;8.52;;;10.40;99.90;;;;;;4977170;28;20485;-78
2022/10/29 04:22:59;;;;;;;23.90;9.77;;;10.40;99.90;;;;;;4975785;28;20046;-78
2022/10/29 04:27:53;;;;;;;13.65;8.98;;;10.40;99.90;;;;;;5025057;23;20122;-77
2022/10/29 04:30:19;;;;;;;24.10;10.57;;;10.40;99.90;;;;;;4973343;28;20481;-77
2022/10/29 04:32:44;;;;;;;20.13;11.10;;;10.50;99.90;;;;;;4969985;28;20045;-77
2022/10/29 04:35:10;;;;;;;26.90;11.13;;;10.50;99.90;;;;;;4957846;28;20160;-77
2022/10/29 04:37:35;;;;;;;31.25;11.02;;;10.50;99.90;;;;;;4980906;28;20045;-77
2022/10/29 04:40:01;;;;;;;27.80;11.27;;;10.50;99.90;;;;;;4958452;28;20038;-78
2022/10/29 04:42:26;;;;;;;23.42;11.80;;;10.50;99.90;;;;;;4958517;28;20039;-78
2022/10/29 04:44:52;;;;;;;25.65;12.60;;;10.60;99.90;;;;;;4957710;28;20077;-77
2022/10/29 04:47:17;;;;;;;26.73;13.15;;;10.50;99.90;;;;;;4956856;28;20042;-77
2022/10/29 04:49:43;;;;;;;11.98;10.63;;;10.60;99.90;;;;;;4990748;28;20050;-77
2022/10/29 04:52:09;;;;;;;16.80;11.63;;;10.60;99.90;;;;;;4990484;28;20050;-77
2022/10/29 04:54:34;;;;;;;17.25;11.38;;;10.60;99.90;;;;;;4957438;28;20070;-78
2022/10/29 04:57:00;;;;;;;13.70;11.98;;;10.60;99.90;;;;;;4954735;28;20468;-77
2022/10/29 04:59:25;;;;;;;18.73;12.80;;;10.60;99.90;;;;;;4989850;28;20072;-78
2022/10/29 05:01:51;;;;;;;17.13;11.88;;;10.60;99.90;;;;;;4960774;28;20038;-77
2022/10/29 05:04:16;;;;;;;25.70;12.77;;;10.60;99.90;;;;;;4989426;28;20042;-78
2022/10/29 05:06:42;;;;;;;26.92;13.73;;;10.70;99.90;;;;;;4992584;28;20097;-77
2022/10/29 05:09:07;;;;;;;18.45;13.27;;;10.60;99.90;;;;;;4977732;28;20034;-77
2022/10/29 05:11:33;;;;;;;39.85;15.52;;;10.80;99.90;;;;;;4977276;28;20042;-77
2022/10/29 05:13:59;;;;;;;17.75;13.50;;;10.70;99.90;;;;;;4973621;28;20076;-78
2022/10/29 05:16:24;;;;;;;25.20;14.95;;;10.70;99.90;;;;;;4993974;28;20034;-77
2022/10/29 05:18:50;;;;;;;22.73;13.80;;;10.70;99.90;;;;;;4961658;28;20085;-77
2022/10/29 05:21:15;;;;;;;40.05;15.35;;;10.80;99.90;;;;;;4962096;28;20046;-77
2022/10/29 05:23:41;;;;;;;19.95;14.27;;;10.80;99.90;;;;;;4992799;28;20400;-77
2022/10/29 05:26:06;;;;;;;34.75;16.02;;;10.90;99.90;;;;;;4992801;28;20041;-78
2022/10/29 05:28:32;;;;;;;26.77;15.73;;;10.80;99.90;;;;;;5000835;28;20046;-78
2022/10/29 05:31:00;;;;;;;36.10;16.42;;;10.90;99.90;;;;;;4993827;28;20031;-78
2022/10/29 05:33:25;;;;;;;33.63;16.80;;;10.90;99.90;;;;;;4961173;28;20042;-77
2022/10/29 05:35:51;;;;;;;83.72;24.33;;;10.90;99.90;;;;;;4991671;28;20370;-77
2022/10/29 05:38:17;;;;;;;84.30;24.92;;;10.90;99.90;;;;;;4960964;28;20049;-77
2022/10/29 05:40:43;;;;;;;34.95;17.25;;;11.00;99.90;;;;;;4959295;28;20030;-77
2022/10/29 05:43:13;;;;;;;24.98;17.00;;;11.00;99.90;;;;;;4976138;28;20049;-77
2022/10/29 05:45:40;;;;;;;74.45;22.63;;;11.00;99.90;;;;;;4997596;28;20844;-78
2022/10/29 05:48:05;;;;;;;25.90;17.55;;;11.00;99.90;;;;;;4960762;28;20038;-77
2022/10/29 05:50:32;;;;;;;56.38;21.40;;;11.00;99.90;;;;;;4959988;28;20512;-78
2022/10/29 05:53:00;;;;;;;62.67;22.52;;;11.00;99.90;;;;;;4957947;28;20038;-77
2022/10/29 05:55:27;;;;;;;29.33;16.30;;;11.10;99.90;;;;;;4989276;28;20066;-77
2022/10/29 05:58:00;;;;;;;46.35;19.75;;;11.10;99.90;;;;;;4992844;28;20492;-77
2022/10/29 06:00:28;;;;;;;40.50;18.75;;;11.10;99.90;;;;;;4978331;28;20042;-77
2022/10/29 06:02:54;;;;;;;36.08;19.08;;;11.10;99.90;;;;;;4996792;28;20049;-77
2022/10/29 06:05:21;;;;;;;38.83;19.35;;;11.10;99.90;;;;;;4960271;28;20048;-78
2022/10/29 06:07:55;;;;;;;32.42;18.50;;;11.20;99.90;;;;;;4992246;28;20041;-79
2022/10/29 06:10:22;;;;;;;68.97;22.50;;;11.20;99.90;;;;;;4977226;28;20049;-79
2022/10/29 06:12:48;;;;;;;62.22;22.85;;;11.20;99.90;;;;;;4996215;28;20030;-79
2022/10/29 06:15:13;;;;;;;37.90;20.08;;;11.20;99.90;;;;;;4975704;28;20061;-78
2022/10/29 06:17:41;;;;;;;29.63;18.48;;;11.20;99.90;;;;;;4969659;28;20034;-78
2022/10/29 06:20:08;;;;;;;31.98;18.73;;;11.20;99.90;;;;;;4976056;28;20173;-77
2022/10/29 06:22:33;;;;;;;33.92;19.00;;;11.20;99.90;;;;;;4976715;28;20519;-77
2022/10/29 06:24:59;;;;;;;34.38;18.67;;;11.20;99.90;;;;;;4976548;28;20038;-77
2022/10/29 06:27:24;;;;;;;40.92;20.23;;;11.20;99.90;;;;;;4991534;28;20057;-77
2022/10/29 06:29:50;;;;;;;43.65;19.35;;;11.20;99.90;;;;;;4959510;28;20042;-78
2022/10/29 06:32:16;;;;;;;50.60;21.25;;;11.30;99.90;;;;;;4960272;28;20190;-77
2022/10/29 06:34:41;;;;;;;41.90;21.13;;;11.30;99.90;;;;;;4957391;28;20070;-77
2022/10/29 06:37:07;;;;;;;57.85;22.75;;;11.30;99.90;;;;;;4989182;28;20034;-78
2022/10/29 06:39:33;;;;;;;60.45;23.77;;;11.30;99.90;;;;;;4992007;28;20078;-77
2022/10/29 06:41:58;;;;;;;57.28;22.75;;;11.30;99.90;;;;;;4959546;28;20559;-77
2022/10/29 06:44:24;;;;;;;43.58;21.15;;;11.40;99.90;;;;;;4958282;28;20069;-77
2022/10/29 06:46:49;;;;;;;50.15;22.98;;;11.30;99.90;;;;;;4985282;28;20100;-78
2022/10/29 06:49:15;;;;;;;52.58;23.02;;;11.40;99.90;;;;;;4958708;28;20038;-78
2022/10/29 06:51:41;;;;;;;57.92;23.08;;;11.40;99.90;;;;;;4962217;28;20432;-78
2022/10/29 06:54:06;;;;;;;65.15;23.92;;;11.40;99.90;;;;;;4972612;28;20046;-78
2022/10/29 06:56:33;;;;;;;39.75;20.45;;;11.40;99.90;;;;;;4991742;28;20070;-77
2022/10/29 06:58:59;;;;;;;54.17;21.48;;;11.50;99.90;;;;;;4975680;28;20464;-78
2022/10/29 07:01:27;;;;;;;61.50;23.10;;;11.50;99.90;;;;;;4959690;28;20105;-78
2022/10/29 07:03:53;;;;;;;31.55;18.65;;;11.50;99.90;;;;;;4991127;28;20045;-78
2022/10/29 07:06:19;;;;;;;27.30;17.48;;;11.50;99.90;;;;;;4988931;28;20109;-78
2022/10/29 07:08:44;;;;;;;24.80;16.73;;;11.60;99.90;;;;;;4956675;28;20511;-78
2022/10/29 07:11:10;;;;;;;25.15;17.35;;;11.60;99.90;;;;;;4955004;28;20031;-79
2022/10/29 07:13:35;;;;;;;26.42;18.00;;;11.60;99.90;;;;;;4991031;28;20554;-78
2022/10/29 07:16:02;;;;;;;26.65;17.13;;;11.60;99.90;;;;;;4974654;28;20081;-79
2022/10/29 07:18:28;;;;;;;26.08;17.58;;;11.70;99.90;;;;;;4992511;28;20119;-79
2022/10/29 07:20:53;;;;;;;56.08;22.08;;;11.70;99.90;;;;;;4978978;28;20042;-78
2022/10/29 07:23:19;;;;;;;37.35;19.83;;;11.70;99.90;;;;;;4990850;28;20038;-78
2022/10/29 07:25:44;;;;;;;33.17;18.10;;;11.70;99.90;;;;;;4975536;28;20057;-76
2022/10/29 07:28:16;;;;;;;43.70;22.33;;;11.70;99.90;;;;;;4990346;28;20108;-78
2022/10/29 07:30:42;;;;;;;48.17;21.90;;;11.80;99.90;;;;;;4990575;28;20247;-78
2022/10/29 07:33:09;;;;;;;40.55;21.08;;;11.80;99.90;;;;;;4991208;28;20042;-77
2022/10/29 07:35:34;;;;;;;40.55;23.67;;;11.80;99.90;;;;;;4993161;28;20058;-78
2022/10/29 07:38:05;;;;;;;41.22;22.05;;;11.90;99.90;;;;;;4994821;28;20081;-78
2022/10/29 07:40:30;;;;;;;63.42;25.15;;;11.90;99.90;;;;;;4987685;28;20038;-78
2022/10/29 07:42:56;;;;;;;42.85;21.92;;;12.00;99.90;;;;;;4973661;28;20042;-77
2022/10/29 07:45:22;;;;;;;43.20;22.95;;;12.10;99.90;;;;;;4990733;28;20054;-77
2022/10/29 07:47:48;;;;;;;45.53;23.10;;;12.10;99.90;;;;;;4974847;28;20050;-77
2022/10/29 07:50:14;;;;;;;37.60;20.52;;;12.10;99.90;;;;;;4991088;28;20088;-79
2022/10/29 07:52:40;;;;;;;38.30;20.88;;;12.20;99.90;;;;;;4994114;28;20125;-78
2022/10/29 07:55:06;;;;;;;37.00;18.90;;;12.20;99.90;;;;;;4980324;28;20505;-77
2022/10/29 07:57:32;;;;;;;32.88;18.88;;;12.20;99.90;;;;;;4977155;28;20070;-79
2022/10/29 07:59:57;;;;;;;38.05;19.13;;;12.30;99.90;;;;;;4992440;28;20563;-77
2022/10/29 08:02:23;;;;;;;41.30;23.20;;;12.40;99.90;;;;;;4991167;28;20132;-77
2022/10/29 08:04:49;;;;;;;43.63;33.30;;;12.40;99.90;;;;;;4990378;28;20480;-77
2022/10/29 08:07:14;;;;;;;54.30;31.95;;;12.50;99.90;;;;;;4957391;28;20409;-77
2022/10/29 08:09:45;;;;;;;46.30;29.35;;;12.60;99.90;;;;;;4990369;28;20399;-77
2022/10/29 08:12:22;;;;;;;55.75;34.70;;;12.70;99.90;;;;;;4990049;28;20038;-76
2022/10/29 08:15:06;;;;;;;41.53;31.48;;;12.70;99.90;;;;;;4957158;28;20049;-77
2022/10/29 08:17:35;;;;;;;41.92;27.40;;;12.70;99.90;;;;;;4975175;28;20516;-77
2022/10/29 08:20:06;;;;;;;44.15;26.40;;;12.80;99.90;;;;;;4990567;28;20037;-76
2022/10/29 08:22:32;;;;;;;48.17;25.77;;;12.90;99.90;;;;;;4943247;28;20054;-76
2022/10/29 08:24:57;;;;;;;44.83;25.85;;;12.90;99.90;;;;;;4968263;28;20054;-77
2022/10/29 08:27:23;;;;;;;39.28;25.42;;;13.00;99.90;;;;;;4989587;28;20559;-77
2022/10/29 08:29:48;;;;;;;44.35;27.83;;;13.10;99.90;;;;;;4956915;28;20218;-76
2022/10/29 08:32:14;;;;;;;40.60;25.88;;;13.10;99.90;;;;;;4990821;28;20038;-76
2022/10/29 08:34:39;;;;;;;43.22;27.52;;;13.20;99.90;;;;;;4964381;28;20047;-76
2022/10/29 08:37:05;;;;;;;46.45;27.20;;;13.20;99.90;;;;;;4957580;28;20039;-78
2022/10/29 08:39:34;;;;;;;44.55;27.23;;;13.30;99.90;;;;;;4974289;28;20045;-78
2022/10/29 08:42:17;;;;;;;45.20;29.30;;;13.40;99.90;;;;;;4979438;28;20034;-77
2022/10/29 08:45:04;;;;;;;38.13;26.60;;;13.50;99.90;;;;;;4959915;28;20042;-76
2022/10/29 08:48:04;;;;;;;44.03;27.58;;;13.50;99.90;;;;;;4991241;28;20117;-76
2022/10/29 08:50:39;;;;;;;57.15;32.22;;;13.70;99.90;;;;;;4926027;28;20866;-76
2022/10/29 08:53:16;;;;;;;48.63;29.38;;;13.70;99.90;;;;;;4958609;28;20053;-76
2022/10/29 08:55:43;;;;;;;41.15;28.00;;;13.80;99.90;;;;;;4993632;28;20527;-76
2022/10/29 08:58:15;;;;;;;41.15;28.08;;;13.90;99.90;;;;;;4993253;28;20035;-76
2022/10/29 09:00:42;;;;;;;46.58;28.95;;;14.00;99.90;;;;;;4961817;28;20125;-76
2022/10/29 09:03:11;;;;;;;40.67;26.63;;;14.10;99.90;;;;;;4992388;28;20041;-76
2022/10/29 09:06:02;;;;;;;41.22;27.67;;;14.20;99.90;;;;;;4993940;28;20386;-76
2022/10/29 09:08:34;;;;;;;36.17;26.73;;;14.30;99.90;;;;;;4989624;28;20046;-77
2022/10/29 09:11:24;;;;;;;40.10;25.95;;;14.40;99.90;;;;;;4961173;28;20400;-78
2022/10/29 09:13:58;;;;;;;39.53;25.52;;;14.50;99.90;;;;;;4981252;28;20454;-76
2022/10/29 09:16:44;;;;;;;38.55;24.55;;;14.60;99.90;;;;;;4993250;28;20026;-76
2022/10/29 09:19:29;;;;;;;32.88;24.08;;;14.80;99.90;;;;;;4963179;28;20038;-75
2022/10/29 09:22:22;;;;;;;32.95;22.33;;;14.80;99.90;;;;;;4977006;28;20046;-76
2022/10/29 09:25:02;;;;;;;28.55;21.85;;;14.90;99.90;;;;;;4993813;28;20085;-76
2022/10/29 09:27:53;;;;;;;29.42;21.15;;;15.00;99.90;;;;;;4960886;28;20042;-76
2022/10/29 09:30:19;;;;;;;32.70;23.15;;;15.10;99.90;;;;;;4992647;28;20688;-75
2022/10/29 09:33:07;;;;;;;44.85;30.25;;;15.10;99.90;;;;;;4956791;28;20046;-77
2022/10/29 09:35:37;;;;;;;40.03;29.17;;;15.40;99.90;;;;;;4977491;28;20040;-77
2022/10/29 09:38:16;;;;;;;62.13;42.13;;;15.50;99.90;;;;;;4980326;28;20038;-77
2022/10/29 09:40:42;;;;;;;32.15;22.67;;;15.50;99.90;;;;;;4977781;28;20049;-84
2022/10/29 09:43:43;;;;;;;26.60;20.40;;;15.60;99.90;;;;;;4978141;28;20034;-77
2022/10/29 09:46:34;;;;;;;28.15;22.27;;;15.60;99.90;;;;;;4913016;29;20046;-77
2022/10/29 09:49:11;;;;;;;28.35;22.20;;;15.70;99.90;;;;;;4960464;28;20121;-77
2022/10/29 09:51:48;;;;;;;29.25;22.70;;;15.70;99.90;;;;;;4975648;28;20455;-79
2022/10/29 09:54:14;;;;;;;28.17;20.88;;;15.80;99.90;;;;;;4976712;28;20050;-79
2022/10/29 09:56:42;;;;;;;29.70;21.90;;;15.80;99.90;;;;;;4990903;28;20046;-78
2022/10/29 09:59:28;;;;;;;29.48;21.83;;;16.00;99.90;;;;;;4990188;28;20034;-78
2022/10/29 10:01:53;;;;;;;26.52;20.90;;;16.00;99.90;;;;;;4959941;28;20085;-78
2022/10/29 10:08:13;;;;;;;29.02;21.30;;;16.20;99.90;;;;;;4995602;28;20053;-78
2022/10/29 10:11:33;;;;;;;27.98;21.15;;;16.30;99.90;;;;;;4983137;28;20046;-78
2022/10/29 10:17:54;;;;;;;30.25;21.15;;;16.60;99.90;;;;;;5001296;28;20080;-78
2022/10/29 10:21:19;;;;;;;28.55;19.67;;;16.70;99.90;;;;;;4966121;28;20393;-78
2022/10/29 10:23:58;;;;;;;24.73;17.27;;;16.70;99.90;;;;;;4911416;29;20048;-77
2022/10/29 10:26:38;;;;;;;23.52;17.92;;;16.80;99.90;;;;;;5006169;23;20046;-79
2022/10/29 10:29:13;;;;;;;27.70;20.33;;;16.90;99.90;;;;;;4997598;28;20041;-81
2022/10/29 10:31:58;;;;;;;25.80;19.88;;;17.00;99.90;;;;;;4996196;28;20053;-82
2022/10/29 10:34:39;;;;;;;24.10;17.40;;;17.20;99.90;;;;;;5033540;28;20034;-80
2022/10/29 10:37:08;;;;;;;28.63;17.80;;;17.40;99.90;;;;;;4998617;28;20030;-80
2022/10/29 10:39:54;;;;;;;29.88;18.08;;;17.40;99.90;;;;;;4983594;28;20164;-80
2022/10/29 10:42:26;;;;;;;23.10;16.73;;;17.40;99.90;;;;;;4999468;28;20403;-80
2022/10/29 10:44:59;;;;;;;26.10;17.23;;;17.40;99.90;;;;;;5012681;28;20057;-80
2022/10/29 10:47:50;;;;;;;22.13;15.88;;;17.50;99.90;;;;;;4988739;28;20053;-80
2022/10/29 10:51:03;;;;;;;22.77;17.38;;;17.40;99.90;;;;;;5000264;28;20105;-86
2022/10/29 10:54:01;;;;;;;23.90;16.50;;;17.40;99.90;;;;;;5005310;28;20053;-77
2022/10/29 10:56:46;;;;;;;28.65;15.95;;;17.40;99.90;;;;;;4996330;28;20082;-78
2022/10/29 10:59:17;;;;;;;23.98;16.15;;;17.50;99.90;;;;;;4967001;28;20070;-77
2022/10/29 11:01:49;;;;;;;27.50;15.43;;;17.50;99.90;;;;;;4994547;28;20117;-79
2022/10/29 11:04:35;;;;;;;22.13;15.30;;;17.50;99.90;;;;;;4987026;28;20303;-78
2022/10/29 11:07:10;;;;;;;20.92;15.20;;;17.50;99.90;;;;;;4993400;28;20049;-78
2022/10/29 11:09:45;;;;;;;26.15;15.45;;;17.60;99.90;;;;;;4977872;28;20038;-78
2022/10/29 11:12:31;;;;;;;22.40;14.80;;;17.70;99.90;;;;;;4977316;28;20034;-78
2022/10/29 11:15:42;;;;;;;22.63;15.02;;;17.80;99.90;;;;;;4971488;28;20098;-78
2022/10/29 11:18:20;;;;;;;20.17;14.32;;;17.80;99.90;;;;;;4959591;28;20043;-79
2022/10/29 11:21:08;;;;;;;21.02;13.57;;;17.80;99.90;;;;;;4959077;28;20039;-78
2022/10/29 11:23:49;;;;;;;21.08;14.45;;;17.80;99.90;;;;;;4960795;28;20173;-79
2022/10/29 11:26:31;;;;;;;22.10;14.60;;;17.80;99.90;;;;;;4973955;28;20047;-79
2022/10/29 11:29:20;;;;;;;23.77;15.35;;;17.90;99.90;;;;;;4959471;28;20053;-78
2022/10/29 11:32:06;;;;;;;23.58;14.18;;;17.90;99.90;;;;;;4976550;28;20070;-79
2022/10/29 11:34:35;;;;;;;19.25;14.38;;;17.90;99.90;;;;;;4976222;28;20380;-78
2022/10/29 11:37:25;;;;;;;23.75;14.77;;;18.00;99.90;;;;;;4975899;28;20056;-78
2022/10/29 11:40:24;;;;;;;26.30;15.50;;;18.00;99.90;;;;;;4960490;28;20037;-78
2022/10/29 11:42:50;;;;;;;24.00;15.98;;;18.10;99.90;;;;;;4942734;29;20050;-78
2022/10/29 11:45:46;;;;;;;24.08;15.07;;;18.10;99.90;;;;;;4957483;29;20110;-78
2022/10/29 11:48:21;;;;;;;;;;;18.20;99.90;;;;;;4943007;29;20548;-79
2022/10/29 11:51:03;;;;;;;22.45;15.35;;;18.20;99.90;;;;;;4944848;29;19984;-79
2022/10/29 11:53:58;;;;;;;21.83;14.60;;;18.40;99.90;;;;;;4959361;28;20600;-79
2022/10/29 11:56:44;;;;;;;19.75;14.23;;;18.80;99.90;;;;;;4955572;28;20117;-79
2022/10/29 11:59:18;;;;;;;20.88;13.65;;;19.00;99.90;;;;;;4986378;28;20073;-79
2022/10/29 12:02:03;;;;;;;20.58;13.52;;;19.20;99.90;;;;;;4969410;28;20550;-79
2022/10/29 12:04:36;;;;;;;22.83;12.43;;;19.40;99.90;;;;;;4940361;29;20043;-79
2022/10/29 12:07:15;;;;;;;19.55;13.50;;;19.40;99.90;;;;;;4956787;29;20039;-79
2022/10/29 12:09:54;;;;;;;19.08;11.70;;;19.40;99.90;;;;;;4939845;29;20058;-79
2022/10/29 12:12:29;;;;;;;18.42;12.00;;;19.40;99.90;;;;;;4950155;28;20030;-78
2022/10/29 12:15:32;;;;;;;19.80;11.93;;;19.30;99.90;;;;;;4961124;28;20057;-79
2022/10/29 12:18:23;;;;;;;20.35;12.00;;;19.20;99.90;;;;;;4966060;28;20034;-79
2022/10/29 12:21:01;;;;;;;19.50;12.07;;;19.10;99.90;;;;;;4957759;28;20102;-79
2022/10/29 12:23:52;;;;;;;17.75;11.23;;;19.10;99.90;;;;;;4964220;28;20039;-79
2022/10/29 12:26:25;;;;;;;20.27;12.48;;;19.10;99.90;;;;;;4979860;28;20038;-79
2022/10/29 12:29:09;;;;;;;19.90;12.82;;;19.00;99.90;;;;;;4980383;28;20081;-79
2022/10/29 12:32:05;;;;;;;19.55;12.45;;;19.00;99.90;;;;;;4980743;28;20058;-79
2022/10/29 12:34:37;;;;;;;18.20;11.13;;;19.10;99.90;;;;;;4958472;28;20070;-79
2022/10/29 12:37:50;;;;;;;20.77;10.88;;;19.10;99.90;;;;;;4967896;28;20042;-79
2022/10/29 12:40:33;;;;;;;16.45;10.45;;;19.10;99.90;;;;;;4963017;28;20051;-79
2022/10/29 12:43:05;;;;;;;19.27;10.45;;;19.10;99.90;;;;;;4966798;28;20042;-79
2022/10/29 12:45:50;;;;;;;17.02;10.10;;;19.20;99.90;;;;;;4964135;28;20501;-78
2022/10/29 12:48:29;;;;;;;18.60;10.00;;;19.20;99.90;;;;;;4963943;28;20097;-79
2022/10/29 12:51:30;;;;;;;18.95;10.75;;;19.20;99.90;;;;;;4955508;28;20086;-79
2022/10/29 12:54:24;;;;;;;14.63;9.68;;;19.20;99.90;;;;;;4957518;28;20089;-79
2022/10/29 12:56:50;;;;;;;16.40;11.18;;;19.20;99.90;;;;;;4963798;28;20133;-79
2022/10/29 12:59:22;;;;;;;16.25;10.48;;;19.20;99.90;;;;;;4963542;28;20551;-79
2022/10/29 13:01:52;;;;;;;19.65;11.15;;;19.20;99.90;;;;;;4963587;28;20097;-79
2022/10/29 13:04:33;;;;;;;19.40;12.43;;;19.10;99.90;;;;;;4963184;28;20061;-79
2022/10/29 13:07:19;;;;;;;17.05;11.32;;;19.10;99.90;;;;;;4954682;28;20524;-79
2022/10/29 13:09:48;;;;;;;18.77;11.27;;;19.10;99.90;;;;;;4968140;28;20038;-79